Time;durP1;ratioP1;P1;durP2;ratioP2;P2;SDS_P1;SDS_P2;PMS_P1;PMS_P2;Temp;Humidity;BMP_temperature;BMP_pressure;BME280_temperature;BME280_humidity;BME280_pressure;Samples;Min_cycle;Max_cycle;Signal;HPM_P1;HPM_P2
2022/10/13 00:01:17;;;;;;;33.03;31.13;;;;;;;9.11;100.00;101887.91;5074531;28;20894;-47
2022/10/13 00:03:45;;;;;;;35.10;32.83;;;;;;;9.11;100.00;101885.25;5075312;28;20815;-53
2022/10/13 00:06:16;;;;;;;33.43;31.47;;;;;;;9.09;100.00;101888.06;5075232;28;20427;-54
2022/10/13 00:08:45;;;;;;;35.07;32.70;;;;;;;9.09;100.00;101892.53;5075133;28;20559;-54
2022/10/13 00:11:15;;;;;;;34.20;32.50;;;;;;;9.07;100.00;101890.06;5074105;28;20867;-53
2022/10/13 00:13:44;;;;;;;33.87;32.10;;;;;;;9.06;100.00;101892.84;5075207;28;20434;-51
2022/10/13 00:16:13;;;;;;;35.20;33.23;;;;;;;9.04;100.00;101895.69;5075057;28;20422;-52
2022/10/13 00:18:41;;;;;;;35.37;33.03;;;;;;;9.03;100.00;101902.00;5075026;28;20456;-52
2022/10/13 00:21:10;;;;;;;33.77;31.77;;;;;;;9.00;100.00;101896.16;5065807;28;20575;-48
2022/10/13 00:23:39;;;;;;;33.30;31.23;;;;;;;8.97;100.00;101902.63;5074851;28;20426;-51
2022/10/13 00:26:10;;;;;;;33.30;31.50;;;;;;;8.92;100.00;101893.47;5074616;28;20851;-49
2022/10/13 00:28:38;;;;;;;33.27;31.67;;;;;;;8.87;100.00;101901.88;5074749;28;20430;-50
2022/10/13 00:31:15;;;;;;;34.03;31.80;;;;;;;8.79;100.00;101900.03;5073932;28;20493;-51
2022/10/13 00:33:43;;;;;;;32.23;30.33;;;;;;;8.73;100.00;101902.47;5074707;28;20434;-49
2022/10/13 00:36:10;;;;;;;32.80;31.30;;;;;;;8.67;100.00;101901.28;5074577;28;20438;-50
2022/10/13 00:38:38;;;;;;;31.80;30.20;;;;;;;8.60;100.00;101902.06;5066865;28;20455;-53
2022/10/13 00:41:06;;;;;;;33.00;30.93;;;;;;;8.55;100.00;101904.34;5071270;28;20466;-45
2022/10/13 00:44:06;;;;;;;32.97;30.97;;;;;;;8.48;100.00;101901.50;5071972;28;20458;-45
2022/10/13 00:46:36;;;;;;;32.93;30.60;;;;;;;8.42;100.00;101895.94;5032109;28;20439;-53
2022/10/13 00:49:07;;;;;;;32.50;30.70;;;;;;;8.37;100.00;101895.56;5065647;28;20484;-51
2022/10/13 00:51:39;;;;;;;33.10;31.20;;;;;;;8.32;100.00;101899.53;5073522;28;20539;-52
2022/10/13 00:54:10;;;;;;;30.47;28.77;;;;;;;8.28;100.00;101900.81;5074339;28;20838;-48
2022/10/13 00:56:38;;;;;;;31.53;29.47;;;;;;;8.27;100.00;101898.28;5073943;28;20438;-46
2022/10/13 00:59:12;;;;;;;31.67;29.87;;;;;;;8.26;100.00;101889.47;5074074;28;20434;-45
2022/10/13 01:01:40;;;;;;;33.13;31.00;;;;;;;8.27;100.00;101899.13;5073330;28;21053;-47
2022/10/13 01:04:09;;;;;;;31.90;29.90;;;;;;;8.27;100.00;101885.84;5074013;28;20434;-46
2022/10/13 01:06:36;;;;;;;33.47;31.50;;;;;;;8.29;100.00;101888.38;5074202;28;20466;-46
2022/10/13 01:09:04;;;;;;;31.93;30.13;;;;;;;8.32;100.00;101882.75;5073790;28;20977;-45
2022/10/13 01:11:47;;;;;;;30.80;29.20;;;;;;;8.35;100.00;101885.09;5073076;28;20558;-51
2022/10/13 01:14:28;;;;;;;32.07;30.40;;;;;;;8.37;100.00;101879.63;5074046;28;20846;-46
2022/10/13 01:17:05;;;;;;;32.87;31.17;;;;;;;8.40;100.00;101874.81;5073957;28;20438;-49
2022/10/13 01:20:02;;;;;;;32.40;30.27;;;;;;;8.43;100.00;101873.69;5071520;28;20908;-50
2022/10/13 01:22:45;;;;;;;32.87;30.97;;;;;;;8.46;100.00;101881.34;5071402;28;20850;-49
2022/10/13 01:25:26;;;;;;;32.23;30.37;;;;;;;8.47;100.00;101873.22;5073621;28;21012;-47
2022/10/13 01:28:11;;;;;;;32.10;30.10;;;;;;;8.49;100.00;101868.59;5073700;28;20483;-53
2022/10/13 01:30:45;;;;;;;32.90;31.07;;;;;;;8.49;100.00;101865.09;5072760;28;20481;-51
2022/10/13 01:33:31;;;;;;;32.97;31.17;;;;;;;8.50;100.00;101856.13;5073430;28;20458;-48
2022/10/13 01:36:13;;;;;;;32.57;30.70;;;;;;;8.49;100.00;101849.97;5073395;28;20435;-49
2022/10/13 01:38:50;;;;;;;32.70;30.93;;;;;;;8.47;100.00;101848.47;5073253;28;20426;-48
2022/10/13 01:41:25;;;;;;;33.90;31.63;;;;;;;8.42;100.00;101845.44;5072712;28;20465;-49
2022/10/13 01:44:01;;;;;;;32.90;31.00;;;;;;;8.38;100.00;101844.09;5073446;28;20480;-50
2022/10/13 01:46:33;;;;;;;31.93;30.20;;;;;;;8.33;100.00;101837.41;5073337;28;20441;-47
2022/10/13 01:49:04;;;;;;;34.33;32.10;;;;;;;8.28;100.00;101833.53;5073156;28;20480;-52
2022/10/13 01:51:33;;;;;;;32.13;30.73;;;;;;;8.22;100.00;101839.44;5072297;28;20478;-46
2022/10/13 01:54:01;;;;;;;32.33;30.80;;;;;;;8.15;100.00;101833.91;5073190;28;20563;-47
2022/10/13 01:56:28;;;;;;;32.07;30.37;;;;;;;8.08;100.00;101827.56;5073264;28;20815;-49
2022/10/13 01:59:01;;;;;;;32.03;30.27;;;;;;;8.00;100.00;101819.53;5072903;28;20431;-50
2022/10/13 02:01:47;;;;;;;32.77;30.90;;;;;;;7.93;100.00;101821.13;5072538;28;20991;-47
2022/10/13 02:04:25;;;;;;;31.27;29.70;;;;;;;7.85;100.00;101813.09;5073024;28;20475;-49
2022/10/13 02:07:01;;;;;;;31.73;29.93;;;;;;;7.76;100.00;101806.03;5072729;28;20555;-45
2022/10/13 02:09:35;;;;;;;32.23;30.10;;;;;;;7.68;100.00;101814.75;5071796;28;20831;-50
2022/10/13 02:12:07;;;;;;;32.77;30.90;;;;;;;7.61;100.00;101804.91;5072312;28;20536;-46
2022/10/13 02:14:38;;;;;;;32.93;30.73;;;;;;;7.55;100.00;101808.16;5072843;28;20480;-49
2022/10/13 02:17:07;;;;;;;32.10;30.20;;;;;;;7.47;100.00;101805.41;5072828;28;20456;-43
2022/10/13 02:19:38;;;;;;;31.50;29.97;;;;;;;7.41;100.00;101806.00;5070084;28;20475;-45
2022/10/13 02:22:08;;;;;;;32.80;30.50;;;;;;;7.35;100.00;101809.28;5066645;28;20503;-43
2022/10/13 02:24:35;;;;;;;31.17;29.40;;;;;;;7.30;100.00;101801.75;5072358;28;20427;-45
2022/10/13 02:27:05;;;;;;;32.20;30.00;;;;;;;7.26;100.00;101799.56;5072586;28;20430;-48
2022/10/13 02:29:32;;;;;;;31.73;29.90;;;;;;;7.20;100.00;101793.00;5072005;28;20438;-44
2022/10/13 02:32:01;;;;;;;33.23;30.10;;;;;;;7.14;100.00;101788.31;5071820;28;20995;-43
2022/10/13 02:34:30;;;;;;;31.80;29.90;;;;;;;7.11;100.00;101788.59;5072283;28;20434;-42
2022/10/13 02:36:57;;;;;;;32.63;30.17;;;;;;;7.07;100.00;101792.56;5072232;28;20488;-43
2022/10/13 02:39:25;;;;;;;31.83;30.10;;;;;;;7.03;100.00;101784.06;5072364;28;20434;-48
2022/10/13 02:41:53;;;;;;;32.20;30.50;;;;;;;7.01;100.00;101791.34;5071402;28;20462;-46
2022/10/13 02:44:20;;;;;;;33.03;31.13;;;;;;;7.00;100.00;101787.00;5072289;28;20512;-43
2022/10/13 02:46:48;;;;;;;32.37;30.67;;;;;;;7.01;100.00;101785.19;5072179;28;20438;-44
2022/10/13 02:49:15;;;;;;;33.90;31.77;;;;;;;7.01;100.00;101783.38;5072085;28;20438;-47
2022/10/13 02:51:44;;;;;;;33.80;31.73;;;;;;;7.05;100.00;101778.59;5070992;28;20991;-48
2022/10/13 02:54:12;;;;;;;33.80;31.70;;;;;;;7.09;100.00;101775.50;5072169;28;20842;-46
2022/10/13 02:56:39;;;;;;;33.07;31.30;;;;;;;7.15;100.00;101768.75;5072168;28;20850;-50
2022/10/13 02:59:07;;;;;;;35.00;32.43;;;;;;;7.24;100.00;101767.88;5072052;28;20464;-45
2022/10/13 03:01:40;;;;;;;33.73;31.83;;;;;;;7.33;100.00;101768.78;5071097;28;20467;-44
2022/10/13 03:04:07;;;;;;;35.50;32.87;;;;;;;7.42;100.00;101770.53;5071899;28;20426;-45
2022/10/13 03:06:35;;;;;;;36.90;34.47;;;;;;;7.50;100.00;101763.47;5071740;28;20441;-44
2022/10/13 03:09:04;;;;;;;35.23;33.03;;;;;;;7.59;100.00;101751.94;5072069;28;20460;-45
2022/10/13 03:11:32;;;;;;;35.73;33.40;;;;;;;7.67;100.00;101764.47;5071010;28;20482;-48
2022/10/13 03:14:00;;;;;;;35.90;33.40;;;;;;;7.74;100.00;101763.69;5071856;28;20434;-45
2022/10/13 03:16:28;;;;;;;37.10;34.77;;;;;;;7.82;100.00;101754.97;5071881;28;20668;-43
2022/10/13 03:18:55;;;;;;;38.67;36.33;;;;;;;7.89;100.00;101752.50;5071488;28;20434;-43
2022/10/13 03:21:23;;;;;;;37.00;34.47;;;;;;;7.96;100.00;101748.25;5062395;28;20874;-43
2022/10/13 03:23:50;;;;;;;36.60;34.30;;;;;;;8.02;100.00;101742.31;5071678;28;20931;-48
2022/10/13 03:26:19;;;;;;;36.77;34.37;;;;;;;8.08;100.00;101741.72;5071591;28;20493;-45
2022/10/13 03:28:48;;;;;;;37.93;35.70;;;;;;;8.12;100.00;101745.72;5071577;28;21009;-43
2022/10/13 03:31:17;;;;;;;36.60;34.43;;;;;;;8.14;100.00;101744.59;5070555;28;20482;-47
2022/10/13 03:33:45;;;;;;;38.87;35.90;;;;;;;8.19;100.00;101747.59;5071852;28;20464;-43
2022/10/13 03:36:13;;;;;;;37.87;35.00;;;;;;;8.23;100.00;101743.63;5071758;28;20464;-47
2022/10/13 03:38:41;;;;;;;36.80;34.30;;;;;;;8.27;100.00;101746.81;5071671;28;20430;-49
2022/10/13 03:41:10;;;;;;;37.43;34.97;;;;;;;8.31;100.00;101751.69;5070215;28;20519;-45
2022/10/13 03:43:39;;;;;;;38.30;35.60;;;;;;;8.35;100.00;101749.56;5070594;28;20927;-43
2022/10/13 03:46:09;;;;;;;37.00;34.77;;;;;;;8.39;100.00;101750.06;5071251;28;20438;-46
2022/10/13 03:48:37;;;;;;;36.57;34.37;;;;;;;8.41;100.00;101748.09;5071570;28;20430;-43
2022/10/13 03:51:06;;;;;;;37.13;34.93;;;;;;;8.44;100.00;101743.28;5070714;28;20505;-46
2022/10/13 03:53:34;;;;;;;37.17;34.80;;;;;;;8.44;100.00;101737.97;5071312;28;20572;-49
2022/10/13 03:56:04;;;;;;;37.30;34.80;;;;;;;8.48;100.00;101744.66;5071373;28;20434;-43
2022/10/13 03:58:32;;;;;;;36.87;34.23;;;;;;;8.49;100.00;101738.31;5071225;28;20439;-45
2022/10/13 04:01:04;;;;;;;38.90;36.13;;;;;;;8.51;100.00;101740.84;5070548;28;20986;-48
2022/10/13 04:03:33;;;;;;;36.27;34.00;;;;;;;8.50;100.00;101731.19;5071425;28;20442;-47
2022/10/13 04:06:01;;;;;;;37.70;35.20;;;;;;;8.53;100.00;101736.19;5071230;28;20537;-45
2022/10/13 04:08:29;;;;;;;37.53;35.03;;;;;;;8.54;100.00;101729.88;5071288;28;20430;-44
2022/10/13 04:11:00;;;;;;;38.80;35.40;;;;;;;8.54;100.00;101728.03;5070422;28;20458;-44
2022/10/13 04:13:28;;;;;;;37.00;34.47;;;;;;;8.55;100.00;101719.06;5071200;28;20481;-44
2022/10/13 04:15:56;;;;;;;38.13;35.57;;;;;;;8.56;100.00;101726.06;5071158;28;20468;-43
2022/10/13 04:18:25;;;;;;;38.10;35.70;;;;;;;8.56;100.00;101719.91;5071211;28;20449;-50
2022/10/13 04:20:52;;;;;;;40.10;37.20;;;;;;;8.53;100.00;101715.75;5061949;28;20458;-43
2022/10/13 04:23:20;;;;;;;39.10;36.30;;;;;;;8.52;100.00;101714.06;5070856;28;20971;-45
2022/10/13 04:25:47;;;;;;;40.30;37.97;;;;;;;8.49;100.00;101714.41;5071024;28;20480;-43
2022/10/13 04:28:15;;;;;;;38.87;36.27;;;;;;;8.49;100.00;101713.56;5070972;28;20430;-45
2022/10/13 04:30:43;;;;;;;36.53;34.33;;;;;;;8.48;100.00;101720.72;5070618;28;20465;-56
2022/10/13 04:33:15;;;;;;;38.83;36.13;;;;;;;8.48;100.00;101703.94;5074294;28;20474;-46
2022/10/13 04:35:44;;;;;;;38.87;36.07;;;;;;;8.47;100.00;101687.16;5074480;28;20496;-43
2022/10/13 04:38:12;;;;;;;38.60;36.30;;;;;;;8.46;100.00;101677.50;5074456;28;21014;-47
2022/10/13 04:40:40;;;;;;;39.17;36.43;;;;;;;8.45;100.00;101699.78;5073902;28;21015;-43
2022/10/13 04:43:07;;;;;;;38.50;36.20;;;;;;;8.45;100.00;101702.44;5074372;28;20449;-43
2022/10/13 04:45:35;;;;;;;38.90;36.30;;;;;;;8.44;100.00;101702.59;5074413;28;20464;-43
2022/10/13 04:48:03;;;;;;;38.37;36.07;;;;;;;8.41;100.00;101695.75;5074325;28;20435;-46
2022/10/13 04:50:30;;;;;;;38.17;35.70;;;;;;;8.43;100.00;101700.91;5073496;28;20466;-49
2022/10/13 04:52:59;;;;;;;41.43;38.13;;;;;;;8.41;100.00;101694.94;5074090;28;20477;-43
2022/10/13 04:55:27;;;;;;;41.17;37.77;;;;;;;8.41;100.00;101695.75;5074321;28;20434;-47
2022/10/13 04:57:55;;;;;;;38.77;36.37;;;;;;;8.39;100.00;101695.09;5074147;28;20492;-45
2022/10/13 05:00:22;;;;;;;39.60;37.00;;;;;;;8.40;100.00;101693.25;5073736;28;20470;-43
2022/10/13 05:02:50;;;;;;;39.70;37.00;;;;;;;8.40;100.00;101688.78;5073815;28;20541;-45
2022/10/13 05:05:18;;;;;;;38.80;36.37;;;;;;;8.40;100.00;101687.94;5073932;28;20446;-44
2022/10/13 05:07:45;;;;;;;38.60;36.23;;;;;;;8.39;100.00;101699.56;5073911;28;20939;-46
2022/10/13 05:10:14;;;;;;;40.33;37.33;;;;;;;8.39;100.00;101704.88;5073553;28;20466;-48
2022/10/13 05:12:42;;;;;;;37.37;35.17;;;;;;;8.39;100.00;101703.06;5073616;28;20474;-43
2022/10/13 05:15:10;;;;;;;39.77;37.10;;;;;;;8.41;100.00;101705.56;5073847;28;20850;-45
2022/10/13 05:17:37;;;;;;;39.93;37.03;;;;;;;8.42;100.00;101696.59;5073518;28;20434;-44
2022/10/13 05:20:05;;;;;;;39.57;36.93;;;;;;;8.42;100.00;101693.94;5067273;28;20463;-43
2022/10/13 05:22:33;;;;;;;39.73;36.90;;;;;;;8.43;100.00;101684.97;5071953;28;20458;-50
2022/10/13 05:25:00;;;;;;;40.67;37.50;;;;;;;8.45;100.00;101680.34;5073801;28;20442;-43
2022/10/13 05:27:29;;;;;;;39.57;37.00;;;;;;;8.47;100.00;101678.34;5073648;28;20432;-43
2022/10/13 05:29:57;;;;;;;39.57;37.07;;;;;;;8.47;100.00;101673.84;5073070;28;20874;-43
2022/10/13 05:32:24;;;;;;;38.97;36.43;;;;;;;8.47;100.00;101676.53;5072791;28;20890;-44
2022/10/13 05:34:52;;;;;;;40.50;37.53;;;;;;;8.49;100.00;101682.50;5073656;28;20438;-43
2022/10/13 05:37:21;;;;;;;42.13;39.10;;;;;;;8.50;100.00;101681.50;5073300;28;21021;-45
2022/10/13 05:39:49;;;;;;;42.13;38.57;;;;;;;8.52;100.00;101684.00;5072958;28;20511;-44
2022/10/13 05:42:16;;;;;;;39.83;37.10;;;;;;;8.53;100.00;101697.16;5072713;28;20455;-43
2022/10/13 05:44:46;;;;;;;41.63;38.60;;;;;;;8.55;100.00;101699.63;5072744;28;20434;-46
2022/10/13 05:47:13;;;;;;;41.33;38.00;;;;;;;8.55;100.00;101683.69;5073019;28;20438;-44
2022/10/13 05:49:41;;;;;;;39.63;36.93;;;;;;;8.57;100.00;101695.00;5072762;28;20476;-47
2022/10/13 05:52:11;;;;;;;41.10;38.30;;;;;;;8.58;100.00;101673.56;5072826;28;20454;-44
2022/10/13 05:54:41;;;;;;;40.20;37.37;;;;;;;8.61;100.00;101683.03;5073296;28;20427;-43
2022/10/13 05:57:16;;;;;;;43.13;39.63;;;;;;;8.61;100.00;101670.56;5072955;28;20476;-46
2022/10/13 05:59:49;;;;;;;42.93;39.20;;;;;;;8.63;100.00;101670.44;5073384;28;20491;-43
2022/10/13 06:02:18;;;;;;;40.87;37.57;;;;;;;8.63;100.00;101662.47;5072777;28;20476;-49
2022/10/13 06:04:50;;;;;;;39.17;36.47;;;;;;;8.67;100.00;101667.28;5072994;28;20520;-47
2022/10/13 06:07:18;;;;;;;40.20;37.60;;;;;;;8.70;100.00;101666.13;5072814;28;20834;-49
2022/10/13 06:09:46;;;;;;;40.63;37.60;;;;;;;8.71;100.00;101665.97;5072160;28;20439;-49
2022/10/13 06:12:13;;;;;;;40.33;37.17;;;;;;;8.77;100.00;101661.81;5072199;28;20511;-45
2022/10/13 06:14:41;;;;;;;39.90;37.10;;;;;;;8.80;100.00;101656.19;5072633;28;20481;-48
2022/10/13 06:17:10;;;;;;;39.43;36.30;;;;;;;8.83;100.00;101667.34;5072634;28;20558;-50
2022/10/13 06:19:37;;;;;;;39.80;36.70;;;;;;;8.85;100.00;101662.66;5069460;28;20430;-44
2022/10/13 06:22:05;;;;;;;39.87;36.70;;;;;;;8.89;100.00;101658.69;5066335;28;20496;-46
2022/10/13 06:24:32;;;;;;;42.00;38.97;;;;;;;8.93;100.00;101651.19;5072611;28;20961;-50
2022/10/13 06:27:00;;;;;;;40.17;37.57;;;;;;;8.96;100.00;101650.88;5072290;28;20919;-44
2022/10/13 06:29:28;;;;;;;39.23;36.70;;;;;;;9.00;100.00;101659.38;5071993;28;20465;-43
2022/10/13 06:31:55;;;;;;;40.80;37.70;;;;;;;9.04;100.00;101652.72;5071867;28;20462;-47
2022/10/13 06:34:24;;;;;;;39.30;36.80;;;;;;;9.05;100.00;101659.72;5072046;28;20471;-47
2022/10/13 06:36:52;;;;;;;43.33;39.70;;;;;;;9.09;100.00;101659.22;5071863;28;20430;-44
2022/10/13 06:39:19;;;;;;;42.30;39.20;;;;;;;9.14;100.00;101662.22;5072284;28;20468;-51
2022/10/13 06:41:47;;;;;;;41.87;38.50;;;;;;;9.18;100.00;101655.56;5071345;28;20531;-44
2022/10/13 06:44:14;;;;;;;41.47;38.13;;;;;;;9.24;100.00;101652.25;5072229;28;20796;-43
2022/10/13 06:46:42;;;;;;;40.90;37.73;;;;;;;9.27;100.00;101649.25;5071997;28;20492;-46
2022/10/13 06:49:10;;;;;;;41.67;38.20;;;;;;;9.35;100.00;101651.06;5071893;28;20452;-49
2022/10/13 06:51:38;;;;;;;41.60;38.70;;;;;;;9.42;100.00;101644.09;5071109;28;20536;-44
2022/10/13 06:54:06;;;;;;;41.83;38.53;;;;;;;9.48;100.00;101646.09;5071675;28;20886;-45
2022/10/13 06:56:34;;;;;;;41.33;38.33;;;;;;;9.60;100.00;101642.09;5072030;28;20431;-50
2022/10/13 06:59:01;;;;;;;42.43;39.33;;;;;;;9.72;100.00;101643.41;5072029;28;20495;-44
2022/10/13 07:01:29;;;;;;;43.90;40.10;;;;;;;9.79;100.00;101651.56;5071066;28;20530;-46
2022/10/13 07:03:57;;;;;;;41.53;38.57;;;;;;;9.87;100.00;101655.03;5071711;28;20422;-45
2022/10/13 07:06:24;;;;;;;42.40;38.93;;;;;;;9.95;100.00;101643.50;5071763;28;20441;-51
2022/10/13 07:08:53;;;;;;;42.90;39.90;;;;;;;10.03;100.00;101648.84;5071790;28;20990;-46
2022/10/13 07:11:21;;;;;;;42.13;39.23;;;;;;;10.08;100.00;101653.63;5070984;28;20615;-48
2022/10/13 07:13:48;;;;;;;41.30;38.37;;;;;;;10.17;100.00;101642.81;5071715;28;20466;-46
2022/10/13 07:16:16;;;;;;;42.50;39.53;;;;;;;10.33;100.00;101649.94;5071608;28;20441;-45
2022/10/13 07:18:44;;;;;;;43.00;40.30;;;;;;;10.44;100.00;101642.38;5071690;28;20920;-44
2022/10/13 07:21:11;;;;;;;42.63;39.90;;;;;;;10.49;100.00;101647.19;5062504;28;20511;-45
2022/10/13 07:23:39;;;;;;;43.27;39.93;;;;;;;10.57;100.00;101646.31;5071697;28;20431;-48
2022/10/13 07:26:10;;;;;;;43.07;40.07;;;;;;;10.56;100.00;101645.50;5071488;28;20427;-47
2022/10/13 07:28:38;;;;;;;41.03;38.30;;;;;;;10.61;100.00;101656.44;5071613;28;20430;-46
2022/10/13 07:31:10;;;;;;;44.07;40.70;;;;;;;10.66;100.00;101647.94;5070851;28;20481;-46
2022/10/13 07:33:38;;;;;;;42.77;39.77;;;;;;;10.70;100.00;101643.91;5071658;28;20531;-46
2022/10/13 07:36:06;;;;;;;43.03;39.93;;;;;;;10.70;100.00;101642.06;5071610;28;20513;-43
2022/10/13 07:38:34;;;;;;;44.73;41.00;;;;;;;10.77;100.00;101645.72;5071444;28;20480;-43
2022/10/13 07:41:03;;;;;;;41.53;38.70;;;;;;;10.80;100.00;101641.84;5070840;28;20450;-44
2022/10/13 07:43:32;;;;;;;40.27;37.30;;;;;;;10.86;100.00;101635.81;5071216;28;20504;-44
2022/10/13 07:46:00;;;;;;;43.30;39.87;;;;;;;10.87;100.00;101632.16;5071508;28;20438;-46
2022/10/13 07:48:28;;;;;;;40.60;37.90;;;;;;;10.92;100.00;101633.28;5071364;28;20993;-44
2022/10/13 07:50:55;;;;;;;42.17;39.07;;;;;;;10.97;100.00;101630.06;5070775;28;20504;-46
2022/10/13 07:53:24;;;;;;;43.53;40.30;;;;;;;11.04;100.00;101628.34;5071214;28;20980;-49
2022/10/13 07:55:51;;;;;;;43.10;40.30;;;;;;;11.11;100.00;101619.44;5071227;28;20438;-47
2022/10/13 07:58:19;;;;;;;43.07;40.17;;;;;;;11.20;100.00;101624.72;5071556;28;20493;-45
2022/10/13 08:00:55;;;;;;;41.27;38.70;;;;;;;11.29;100.00;101621.00;5070722;28;20462;-45
2022/10/13 08:03:23;;;;;;;42.50;39.60;;;;;;;11.33;100.00;101625.78;5071183;28;20503;-44
2022/10/13 08:05:51;;;;;;;42.43;39.43;;;;;;;11.45;100.00;101627.00;5071971;28;20856;-43
2022/10/13 08:08:18;;;;;;;44.57;41.10;;;;;;;11.51;100.00;101618.28;5074906;28;20434;-46
2022/10/13 08:10:46;;;;;;;44.87;41.73;;;;;;;11.62;100.00;101622.31;5074459;28;20466;-51
2022/10/13 08:13:14;;;;;;;45.30;42.10;;;;;;;11.71;100.00;101618.59;5075019;28;20482;-47
2022/10/13 08:15:42;;;;;;;43.83;41.07;;;;;;;11.82;100.00;101617.34;5075270;28;20523;-53
2022/10/13 08:18:12;;;;;;;45.07;41.97;;;;;;;11.92;100.00;101615.19;5074881;28;20484;-50
2022/10/13 08:20:40;;;;;;;44.93;41.73;;;;;;;12.02;100.00;101611.25;5065974;28;20524;-51
2022/10/13 08:23:10;;;;;;;43.90;40.20;;;;;;;12.12;100.00;101608.31;5074767;28;20457;-50
2022/10/13 08:25:39;;;;;;;44.17;41.03;;;;;;;12.26;100.00;101593.25;5074888;28;20430;-50
2022/10/13 08:28:15;;;;;;;45.27;42.10;;;;;;;12.34;100.00;101591.28;5074977;28;20430;-51
2022/10/13 08:30:43;;;;;;;45.80;42.67;;;;;;;12.47;100.00;101596.81;5074030;28;21048;-52
2022/10/13 08:33:12;;;;;;;45.53;41.80;;;;;;;12.55;100.00;101593.19;5074393;28;20516;-49
2022/10/13 08:35:41;;;;;;;46.63;43.17;;;;;;;12.63;100.00;101595.75;5074358;28;20523;-53
2022/10/13 08:38:09;;;;;;;46.67;43.03;;;;;;;12.78;100.00;101586.63;5074703;28;20434;-52
2022/10/13 08:40:38;;;;;;;45.10;41.93;;;;;;;12.92;100.00;101592.13;5074139;28;20897;-51
2022/10/13 08:43:07;;;;;;;45.73;41.80;;;;;;;12.94;100.00;101592.75;5074080;28;20443;-50
2022/10/13 08:45:35;;;;;;;47.57;43.97;;;;;;;12.94;100.00;101587.41;5074378;28;20426;-50
2022/10/13 08:48:15;;;;;;;44.93;41.73;;;;;;;12.94;100.00;101584.72;5074079;28;20427;-51
2022/10/13 08:50:45;;;;;;;46.50;43.33;;;;;;;12.96;100.00;101577.34;5073629;28;20515;-51
2022/10/13 08:53:19;;;;;;;45.40;42.10;;;;;;;12.93;100.00;101577.75;5074243;28;20512;-50
2022/10/13 08:55:49;;;;;;;46.77;43.17;;;;;;;12.94;100.00;101576.69;5074185;28;20520;-49
2022/10/13 08:58:21;;;;;;;44.27;41.07;;;;;;;13.04;100.00;101583.41;5074100;28;20483;-50
2022/10/13 09:00:58;;;;;;;44.97;41.57;;;;;;;13.08;100.00;101568.63;5073480;28;20473;-50
2022/10/13 09:03:29;;;;;;;44.10;41.20;;;;;;;13.10;100.00;101576.47;5074052;28;20496;-50
2022/10/13 09:06:11;;;;;;;44.40;41.10;;;;;;;13.16;100.00;101568.50;5074134;28;20435;-48
2022/10/13 09:08:42;;;;;;;45.37;42.03;;;;;;;13.23;100.00;101573.94;5074007;28;20422;-48
2022/10/13 09:11:12;;;;;;;45.97;42.60;;;;;;;13.29;100.00;101570.44;5073276;28;20458;-49
2022/10/13 09:13:40;;;;;;;45.87;42.30;;;;;;;13.32;100.00;101570.06;5074005;28;20480;-47
2022/10/13 09:16:08;;;;;;;43.80;40.13;;;;;;;13.36;100.00;101573.19;5073906;28;20518;-50
2022/10/13 09:18:37;;;;;;;42.27;39.27;;;;;;;13.39;100.00;101572.78;5073422;28;20438;-46
2022/10/13 09:21:18;;;;;;;44.37;41.13;;;;;;;13.38;100.00;101573.84;5064500;28;21189;-46
2022/10/13 09:23:46;;;;;;;47.50;43.50;;;;;;;13.35;100.00;101575.03;5053804;28;20477;-51
2022/10/13 09:26:19;;;;;;;46.23;42.93;;;;;;;13.38;100.00;101563.13;5053697;28;20843;-48
2022/10/13 09:28:48;;;;;;;46.83;43.17;;;;;;;13.38;100.00;101574.63;5053688;28;20840;-50
2022/10/13 09:31:18;;;;;;;46.47;43.07;;;;;;;13.42;100.00;101567.03;5052565;28;20499;-51
2022/10/13 09:33:57;;;;;;;43.63;40.50;;;;;;;13.38;100.00;101577.31;5053365;28;20485;-49
2022/10/13 09:36:25;;;;;;;43.13;40.30;;;;;;;13.40;100.00;101569.94;5053634;28;20475;-51
2022/10/13 09:39:15;;;;;;;42.37;39.53;;;;;;;13.46;100.00;101573.69;5053556;28;20431;-51
2022/10/13 09:41:43;;;;;;;45.10;42.03;;;;;;;13.40;100.00;101574.47;5048402;28;20463;-50
2022/10/13 09:44:14;;;;;;;45.80;41.93;;;;;;;13.42;100.00;101575.91;5053261;28;20989;-51
2022/10/13 09:46:49;;;;;;;45.10;41.60;;;;;;;13.55;100.00;101572.50;5053242;28;21010;-47
2022/10/13 09:49:41;;;;;;;43.53;40.23;;;;;;;13.63;100.00;101575.03;5053396;28;20501;-48
2022/10/13 09:52:17;;;;;;;43.00;40.13;;;;;;;13.69;100.00;101575.09;5048991;28;20863;-49
2022/10/13 09:54:47;;;;;;;45.10;41.60;;;;;;;13.71;100.00;101564.97;5052981;28;20528;-49
2022/10/13 09:57:27;;;;;;;43.03;39.63;;;;;;;13.75;100.00;101563.56;5053170;28;20435;-50
2022/10/13 10:00:04;;;;;;;42.77;39.43;;;;;;;13.77;100.00;101556.16;5052600;28;20517;-47
2022/10/13 10:02:37;;;;;;;42.40;39.20;;;;;;;13.72;98.46;101555.91;5052639;28;20451;-51
2022/10/13 10:05:16;;;;;;;41.27;38.47;;;;;;;13.78;99.53;101557.81;5052850;28;20439;-46
2022/10/13 10:07:44;;;;;;;41.57;38.33;;;;;;;13.73;98.43;101557.59;5052960;28;20847;-49
2022/10/13 10:10:24;;;;;;;42.30;38.93;;;;;;;13.57;96.56;101571.28;5052448;28;20828;-48
2022/10/13 10:12:52;;;;;;;43.30;39.80;;;;;;;13.45;97.59;101559.44;5052426;28;20848;-51
2022/10/13 10:15:24;;;;;;;44.03;40.50;;;;;;;13.38;99.13;101563.13;5052572;28;20475;-47
2022/10/13 10:17:55;;;;;;;41.97;38.87;;;;;;;13.23;99.76;101566.69;5052820;28;20489;-49
2022/10/13 10:20:40;;;;;;;42.93;39.43;;;;;;;13.13;100.00;101568.06;5054394;28;20513;-45
2022/10/13 10:23:14;;;;;;;43.20;39.13;;;;;;;13.03;100.00;101559.50;5072444;28;20446;-46
2022/10/13 10:25:46;;;;;;;41.03;37.60;;;;;;;12.97;100.00;101554.91;5072357;28;20491;-48
2022/10/13 10:28:32;;;;;;;42.90;39.50;;;;;;;12.99;100.00;101553.69;5072300;28;20418;-47
2022/10/13 10:31:10;;;;;;;42.70;39.23;;;;;;;13.10;100.00;101549.69;5071698;28;20516;-46
2022/10/13 10:33:49;;;;;;;42.03;38.57;;;;;;;13.15;100.00;101548.09;5072519;28;20488;-46
2022/10/13 10:36:23;;;;;;;42.87;38.93;;;;;;;13.12;100.00;101561.03;5072185;28;20465;-48
2022/10/13 10:38:55;;;;;;;45.27;41.87;;;;;;;13.03;100.00;101554.13;5072165;28;20483;-45
2022/10/13 10:41:38;;;;;;;43.07;39.80;;;;;;;12.93;100.00;101548.28;5071399;28;20531;-46
2022/10/13 10:44:10;;;;;;;42.47;39.23;;;;;;;12.86;100.00;101542.03;5072056;28;20924;-45
2022/10/13 10:46:42;;;;;;;42.90;39.00;;;;;;;12.73;100.00;101537.38;5072003;28;20495;-45
2022/10/13 10:49:16;;;;;;;43.43;39.70;;;;;;;12.73;100.00;101537.38;5072298;28;20423;-47
2022/10/13 10:51:46;;;;;;;43.63;40.17;;;;;;;12.68;100.00;101531.78;5071253;28;20465;-46
2022/10/13 10:54:26;;;;;;;43.33;39.77;;;;;;;12.66;100.00;101537.31;5072091;28;20479;-45
2022/10/13 10:56:58;;;;;;;44.80;41.33;;;;;;;12.72;100.00;101541.09;5071835;28;21214;-47
2022/10/13 10:59:43;;;;;;;44.00;40.57;;;;;;;12.77;100.00;101534.16;5071910;28;20464;-46
2022/10/13 11:02:19;;;;;;;45.37;41.67;;;;;;;12.81;100.00;101533.75;5070092;28;20450;-45
2022/10/13 11:04:49;;;;;;;42.57;39.63;;;;;;;12.78;100.00;101529.63;5071930;28;20426;-46
2022/10/13 11:07:52;;;;;;;44.47;41.17;;;;;;;12.73;100.00;101540.91;5071867;28;20426;-46
2022/10/13 11:10:22;;;;;;;46.77;42.53;;;;;;;12.68;100.00;101542.50;5064786;28;20454;-46
2022/10/13 11:13:24;;;;;;;46.53;41.90;;;;;;;12.72;100.00;101536.56;5071633;28;20458;-45
2022/10/13 11:15:52;;;;;;;46.40;42.50;;;;;;;12.79;100.00;101533.94;5071616;28;20544;-46
2022/10/13 11:18:55;;;;;;;44.73;41.07;;;;;;;12.84;100.00;101544.09;5071859;28;20437;-47
2022/10/13 11:21:22;;;;;;;45.90;42.03;;;;;;;12.83;100.00;101529.03;5064644;28;20812;-47
2022/10/13 11:23:50;;;;;;;45.07;41.60;;;;;;;12.81;100.00;101529.25;5071629;28;20920;-45